Fort Collins High School, Colorado
Current Conditions -  °F | °C
As of 4:55 PM on Monday 22 Dec 2014 (Local Time) from KFNL Reporting Station
Clear Clear  
Wind Chill: 24°   Ceiling: Unl
Heat Index: 36°   Visibility: 10mi
Dew Point: 16°   Wind: 23mph
Humidity: 44%   Direction: 330°NNW
Pressure: 29.75"   Gusts: 36mph
Location:  40.54033°N, 105.0358°W
Report Text: KFNL 222355Z AUTO 33020G31KT 10SM CLR 02/M09 A2975 RMK AO1 10040 20000 400901030 52014
Loading
Personal Weather Stations






























Interactive Weather Map New forecast layout! Learn more

10-Day Weather Forecast

Advertisements
Track Severe Weather on mobile